sensor_id;sensor_type;location;lat;lon;timestamp;temperature;humidity
6690;DHT22;3382;51.576;8.076;2023-04-21T00:00:05;10.20;99.90
6690;DHT22;3382;51.576;8.076;2023-04-21T00:02:34;10.00;99.90
6690;DHT22;3382;51.576;8.076;2023-04-21T00:05:05;10.00;99.90
6690;DHT22;3382;51.576;8.076;2023-04-21T00:07:31;10.00;99.90
6690;DHT22;3382;51.576;8.076;2023-04-21T00:09:58;10.00;99.90
6690;DHT22;3382;51.576;8.076;2023-04-21T00:12:24;10.00;99.90
6690;DHT22;3382;51.576;8.076;2023-04-21T00:14:49;10.10;99.90
6690;DHT22;3382;51.576;8.076;2023-04-21T00:17:15;10.10;99.90
6690;DHT22;3382;51.576;8.076;2023-04-21T00:19:40;10.20;99.90
6690;DHT22;3382;51.576;8.076;2023-04-21T00:22:06;10.20;99.90
6690;DHT22;3382;51.576;8.076;2023-04-21T00:24:36;10.20;99.90
6690;DHT22;3382;51.576;8.076;2023-04-21T00:27:02;10.30;99.90
6690;DHT22;3382;51.576;8.076;2023-04-21T00:29:28;10.30;99.90
6690;DHT22;3382;51.576;8.076;2023-04-21T00:31:53;10.30;99.90
6690;DHT22;3382;51.576;8.076;2023-04-21T00:34:19;10.40;99.90
6690;DHT22;3382;51.576;8.076;2023-04-21T00:36:44;10.40;99.90
6690;DHT22;3382;51.576;8.076;2023-04-21T00:39:10;10.50;99.90
6690;DHT22;3382;51.576;8.076;2023-04-21T00:41:36;10.40;99.90
6690;DHT22;3382;51.576;8.076;2023-04-21T00:46:29;10.40;99.90
6690;DHT22;3382;51.576;8.076;2023-04-21T00:48:56;10.40;99.90
6690;DHT22;3382;51.576;8.076;2023-04-21T00:51:22;10.40;99.90
6690;DHT22;3382;51.576;8.076;2023-04-21T00:53:49;10.40;99.90
6690;DHT22;3382;51.576;8.076;2023-04-21T00:56:16;10.40;99.90
6690;DHT22;3382;51.576;8.076;2023-04-21T00:58:43;10.40;99.90
6690;DHT22;3382;51.576;8.076;2023-04-21T01:01:09;10.40;99.90
6690;DHT22;3382;51.576;8.076;2023-04-21T01:03:35;10.40;99.90
6690;DHT22;3382;51.576;8.076;2023-04-21T01:06:01;10.40;99.90
6690;DHT22;3382;51.576;8.076;2023-04-21T01:08:26;10.40;99.90
6690;DHT22;3382;51.576;8.076;2023-04-21T01:10:52;10.40;99.90
6690;DHT22;3382;51.576;8.076;2023-04-21T01:13:21;10.50;99.90
6690;DHT22;3382;51.576;8.076;2023-04-21T01:15:47;10.40;99.90
6690;DHT22;3382;51.576;8.076;2023-04-21T01:18:13;10.40;99.90
6690;DHT22;3382;51.576;8.076;2023-04-21T01:20:39;10.40;99.90
6690;DHT22;3382;51.576;8.076;2023-04-21T01:23:05;10.40;99.90
6690;DHT22;3382;51.576;8.076;2023-04-21T01:25:31;10.40;99.90
6690;DHT22;3382;51.576;8.076;2023-04-21T01:27:57;10.40;99.90
6690;DHT22;3382;51.576;8.076;2023-04-21T01:30:23;10.40;99.90
6690;DHT22;3382;51.576;8.076;2023-04-21T01:32:48;10.40;99.90
6690;DHT22;3382;51.576;8.076;2023-04-21T01:35:14;10.40;99.90
6690;DHT22;3382;51.576;8.076;2023-04-21T01:37:39;10.40;99.90
6690;DHT22;3382;51.576;8.076;2023-04-21T01:40:06;10.50;99.90
6690;DHT22;3382;51.576;8.076;2023-04-21T01:42:36;10.50;99.90
6690;DHT22;3382;51.576;8.076;2023-04-21T01:45:02;10.50;99.90
6690;DHT22;3382;51.576;8.076;2023-04-21T01:47:28;10.50;99.90
6690;DHT22;3382;51.576;8.076;2023-04-21T01:49:54;10.50;99.90
6690;DHT22;3382;51.576;8.076;2023-04-21T01:52:19;10.50;99.90
6690;DHT22;3382;51.576;8.076;2023-04-21T01:54:45;10.60;99.90
6690;DHT22;3382;51.576;8.076;2023-04-21T01:57:11;10.50;99.90
6690;DHT22;3382;51.576;8.076;2023-04-21T01:59:37;10.50;99.90
6690;DHT22;3382;51.576;8.076;2023-04-21T02:02:03;10.60;99.90
6690;DHT22;3382;51.576;8.076;2023-04-21T02:04:29;10.60;99.90
6690;DHT22;3382;51.576;8.076;2023-04-21T02:06:54;10.70;99.90
6690;DHT22;3382;51.576;8.076;2023-04-21T02:09:20;10.70;99.90
6690;DHT22;3382;51.576;8.076;2023-04-21T02:11:45;10.70;99.90
6690;DHT22;3382;51.576;8.076;2023-04-21T02:14:11;10.70;99.90
6690;DHT22;3382;51.576;8.076;2023-04-21T02:16:36;10.80;99.90
6690;DHT22;3382;51.576;8.076;2023-04-21T02:19:02;10.80;99.90
6690;DHT22;3382;51.576;8.076;2023-04-21T02:21:28;10.80;99.90
6690;DHT22;3382;51.576;8.076;2023-04-21T02:23:53;10.80;99.90
6690;DHT22;3382;51.576;8.076;2023-04-21T02:26:19;10.80;99.90
6690;DHT22;3382;51.576;8.076;2023-04-21T02:28:45;10.90;99.90
6690;DHT22;3382;51.576;8.076;2023-04-21T02:31:15;10.80;99.90
6690;DHT22;3382;51.576;8.076;2023-04-21T02:33:40;10.90;99.90
6690;DHT22;3382;51.576;8.076;2023-04-21T02:36:06;10.90;99.90
6690;DHT22;3382;51.576;8.076;2023-04-21T02:38:32;10.90;99.90
6690;DHT22;3382;51.576;8.076;2023-04-21T02:40:57;10.90;99.90
6690;DHT22;3382;51.576;8.076;2023-04-21T02:43:23;10.90;99.90
6690;DHT22;3382;51.576;8.076;2023-04-21T02:45:49;10.90;99.90
6690;DHT22;3382;51.576;8.076;2023-04-21T02:48:15;10.90;99.90
6690;DHT22;3382;51.576;8.076;2023-04-21T02:50:41;11.00;99.90
6690;DHT22;3382;51.576;8.076;2023-04-21T02:53:07;10.90;99.90
6690;DHT22;3382;51.576;8.076;2023-04-21T02:55:33;11.00;99.90
6690;DHT22;3382;51.576;8.076;2023-04-21T02:57:58;11.00;99.90
6690;DHT22;3382;51.576;8.076;2023-04-21T03:00:24;11.00;99.90
6690;DHT22;3382;51.576;8.076;2023-04-21T03:02:50;11.00;99.90
6690;DHT22;3382;51.576;8.076;2023-04-21T03:05:17;11.00;99.90
6690;DHT22;3382;51.576;8.076;2023-04-21T03:07:44;11.10;99.90
6690;DHT22;3382;51.576;8.076;2023-04-21T03:10:10;11.10;99.90
6690;DHT22;3382;51.576;8.076;2023-04-21T03:12:35;11.20;99.90
6690;DHT22;3382;51.576;8.076;2023-04-21T03:15:02;11.20;99.90
6690;DHT22;3382;51.576;8.076;2023-04-21T03:17:28;11.20;99.90
6690;DHT22;3382;51.576;8.076;2023-04-21T03:19:53;11.20;99.90
6690;DHT22;3382;51.576;8.076;2023-04-21T03:22:19;11.20;99.90
6690;DHT22;3382;51.576;8.076;2023-04-21T03:24:45;11.30;99.90
6690;DHT22;3382;51.576;8.076;2023-04-21T03:27:10;11.30;99.90
6690;DHT22;3382;51.576;8.076;2023-04-21T03:29:36;11.30;99.90
6690;DHT22;3382;51.576;8.076;2023-04-21T03:32:02;11.30;99.90
6690;DHT22;3382;51.576;8.076;2023-04-21T03:34:27;11.30;99.90
6690;DHT22;3382;51.576;8.076;2023-04-21T03:36:53;11.30;99.90
6690;DHT22;3382;51.576;8.076;2023-04-21T03:39:20;11.30;99.90
6690;DHT22;3382;51.576;8.076;2023-04-21T03:41:46;11.30;99.90
6690;DHT22;3382;51.576;8.076;2023-04-21T03:44:11;11.30;99.90
6690;DHT22;3382;51.576;8.076;2023-04-21T03:46:37;11.30;99.90
6690;DHT22;3382;51.576;8.076;2023-04-21T03:49:03;11.30;99.90
6690;DHT22;3382;51.576;8.076;2023-04-21T03:51:28;11.30;99.90
6690;DHT22;3382;51.576;8.076;2023-04-21T03:53:54;11.30;99.90
6690;DHT22;3382;51.576;8.076;2023-04-21T03:56:19;11.30;99.90
6690;DHT22;3382;51.576;8.076;2023-04-21T03:58:45;11.30;99.90
6690;DHT22;3382;51.576;8.076;2023-04-21T04:01:10;11.30;99.90
6690;DHT22;3382;51.576;8.076;2023-04-21T04:03:36;11.30;99.90
6690;DHT22;3382;51.576;8.076;2023-04-21T04:06:01;11.30;99.90
6690;DHT22;3382;51.576;8.076;2023-04-21T04:08:28;11.30;99.90
6690;DHT22;3382;51.576;8.076;2023-04-21T04:10:54;11.30;99.90
6690;DHT22;3382;51.576;8.076;2023-04-21T04:13:21;11.30;99.90
6690;DHT22;3382;51.576;8.076;2023-04-21T04:15:47;11.30;99.90
6690;DHT22;3382;51.576;8.076;2023-04-21T04:18:12;11.30;99.90
6690;DHT22;3382;51.576;8.076;2023-04-21T04:20:38;11.30;99.90
6690;DHT22;3382;51.576;8.076;2023-04-21T04:23:03;11.20;99.90
6690;DHT22;3382;51.576;8.076;2023-04-21T04:25:29;11.20;99.90
6690;DHT22;3382;51.576;8.076;2023-04-21T04:27:55;11.10;99.90
6690;DHT22;3382;51.576;8.076;2023-04-21T04:30:21;11.10;99.90
6690;DHT22;3382;51.576;8.076;2023-04-21T04:32:48;11.10;99.90
6690;DHT22;3382;51.576;8.076;2023-04-21T04:35:13;11.00;99.90
6690;DHT22;3382;51.576;8.076;2023-04-21T04:37:40;11.00;99.90
6690;DHT22;3382;51.576;8.076;2023-04-21T04:40:06;10.90;99.90
6690;DHT22;3382;51.576;8.076;2023-04-21T04:42:36;10.90;99.90
6690;DHT22;3382;51.576;8.076;2023-04-21T04:45:04;11.00;99.90
6690;DHT22;3382;51.576;8.076;2023-04-21T04:47:33;11.20;99.90
6690;DHT22;3382;51.576;8.076;2023-04-21T04:49:58;11.20;99.90
6690;DHT22;3382;51.576;8.076;2023-04-21T04:52:24;11.10;99.90
6690;DHT22;3382;51.576;8.076;2023-04-21T04:54:49;11.20;99.90
6690;DHT22;3382;51.576;8.076;2023-04-21T04:57:15;11.10;99.90
6690;DHT22;3382;51.576;8.076;2023-04-21T04:59:41;11.00;99.90
6690;DHT22;3382;51.576;8.076;2023-04-21T05:02:06;11.00;99.90
6690;DHT22;3382;51.576;8.076;2023-04-21T05:04:33;11.10;99.90
6690;DHT22;3382;51.576;8.076;2023-04-21T05:06:58;11.00;99.90
6690;DHT22;3382;51.576;8.076;2023-04-21T05:09:24;11.20;99.90
6690;DHT22;3382;51.576;8.076;2023-04-21T05:11:50;11.00;99.90
6690;DHT22;3382;51.576;8.076;2023-04-21T05:14:15;11.00;99.90
6690;DHT22;3382;51.576;8.076;2023-04-21T05:16:42;11.00;99.90
6690;DHT22;3382;51.576;8.076;2023-04-21T05:19:08;11.00;99.90
6690;DHT22;3382;51.576;8.076;2023-04-21T05:21:34;11.10;99.90
6690;DHT22;3382;51.576;8.076;2023-04-21T05:23:59;11.10;99.90
6690;DHT22;3382;51.576;8.076;2023-04-21T05:26:26;11.10;99.90
6690;DHT22;3382;51.576;8.076;2023-04-21T05:28:53;11.10;99.90
6690;DHT22;3382;51.576;8.076;2023-04-21T05:31:18;11.30;99.90
6690;DHT22;3382;51.576;8.076;2023-04-21T05:33:44;11.40;99.90
6690;DHT22;3382;51.576;8.076;2023-04-21T05:36:10;11.40;99.90
6690;DHT22;3382;51.576;8.076;2023-04-21T05:38:36;11.40;99.90
6690;DHT22;3382;51.576;8.076;2023-04-21T05:41:02;11.60;99.90
6690;DHT22;3382;51.576;8.076;2023-04-21T05:43:29;11.60;99.90
6690;DHT22;3382;51.576;8.076;2023-04-21T05:45:58;11.60;99.90
6690;DHT22;3382;51.576;8.076;2023-04-21T05:48:23;11.60;99.90
6690;DHT22;3382;51.576;8.076;2023-04-21T05:50:49;11.60;99.90
6690;DHT22;3382;51.576;8.076;2023-04-21T05:53:14;11.60;99.90
6690;DHT22;3382;51.576;8.076;2023-04-21T05:55:40;11.60;99.90
6690;DHT22;3382;51.576;8.076;2023-04-21T05:58:06;11.60;99.90
6690;DHT22;3382;51.576;8.076;2023-04-21T06:00:31;11.70;99.90
6690;DHT22;3382;51.576;8.076;2023-04-21T06:02:57;11.70;99.90
6690;DHT22;3382;51.576;8.076;2023-04-21T06:05:22;11.80;99.90
6690;DHT22;3382;51.576;8.076;2023-04-21T06:07:48;11.80;99.90
6690;DHT22;3382;51.576;8.076;2023-04-21T06:10:14;11.80;99.90
6690;DHT22;3382;51.576;8.076;2023-04-21T06:12:40;11.90;99.90
6690;DHT22;3382;51.576;8.076;2023-04-21T06:15:06;11.90;99.90
6690;DHT22;3382;51.576;8.076;2023-04-21T06:17:31;12.00;99.90
6690;DHT22;3382;51.576;8.076;2023-04-21T06:19:57;12.00;99.90
6690;DHT22;3382;51.576;8.076;2023-04-21T06:22:23;12.00;99.90
6690;DHT22;3382;51.576;8.076;2023-04-21T06:24:49;12.00;99.90
6690;DHT22;3382;51.576;8.076;2023-04-21T06:27:15;12.10;99.90
6690;DHT22;3382;51.576;8.076;2023-04-21T06:29:41;12.20;99.90
6690;DHT22;3382;51.576;8.076;2023-04-21T06:32:07;12.20;99.90
6690;DHT22;3382;51.576;8.076;2023-04-21T06:34:33;12.20;99.90
6690;DHT22;3382;51.576;8.076;2023-04-21T06:36:58;12.20;99.90
6690;DHT22;3382;51.576;8.076;2023-04-21T06:39:24;12.20;99.90
6690;DHT22;3382;51.576;8.076;2023-04-21T06:41:49;12.30;99.90
6690;DHT22;3382;51.576;8.076;2023-04-21T06:44:15;12.30;99.90
6690;DHT22;3382;51.576;8.076;2023-04-21T06:46:40;12.30;99.90
6690;DHT22;3382;51.576;8.076;2023-04-21T06:49:07;12.30;99.90
6690;DHT22;3382;51.576;8.076;2023-04-21T06:51:32;12.30;99.90
6690;DHT22;3382;51.576;8.076;2023-04-21T06:53:58;12.30;99.90
6690;DHT22;3382;51.576;8.076;2023-04-21T06:56:26;12.40;99.90
6690;DHT22;3382;51.576;8.076;2023-04-21T06:58:52;12.40;99.90
6690;DHT22;3382;51.576;8.076;2023-04-21T07:01:17;12.50;99.90
6690;DHT22;3382;51.576;8.076;2023-04-21T07:03:43;12.50;99.90
6690;DHT22;3382;51.576;8.076;2023-04-21T07:06:09;12.60;99.90
6690;DHT22;3382;51.576;8.076;2023-04-21T07:08:36;12.50;99.90
6690;DHT22;3382;51.576;8.076;2023-04-21T07:11:01;12.60;99.90
6690;DHT22;3382;51.576;8.076;2023-04-21T07:13:27;12.50;99.90
6690;DHT22;3382;51.576;8.076;2023-04-21T07:15:53;12.60;99.90
6690;DHT22;3382;51.576;8.076;2023-04-21T07:18:18;12.60;99.90
6690;DHT22;3382;51.576;8.076;2023-04-21T07:20:44;12.70;99.90
6690;DHT22;3382;51.576;8.076;2023-04-21T07:23:10;12.70;99.90
6690;DHT22;3382;51.576;8.076;2023-04-21T07:25:36;12.80;99.90
6690;DHT22;3382;51.576;8.076;2023-04-21T07:28:02;12.90;99.90
6690;DHT22;3382;51.576;8.076;2023-04-21T07:30:28;12.90;99.90
6690;DHT22;3382;51.576;8.076;2023-04-21T07:32:55;12.90;99.90
6690;DHT22;3382;51.576;8.076;2023-04-21T07:35:20;13.00;99.90
6690;DHT22;3382;51.576;8.076;2023-04-21T07:37:46;13.00;99.90
6690;DHT22;3382;51.576;8.076;2023-04-21T07:40:12;13.00;99.90
6690;DHT22;3382;51.576;8.076;2023-04-21T07:42:38;13.00;99.90
6690;DHT22;3382;51.576;8.076;2023-04-21T07:45:04;13.10;99.90
6690;DHT22;3382;51.576;8.076;2023-04-21T07:47:30;13.20;99.90
6690;DHT22;3382;51.576;8.076;2023-04-21T07:49:56;13.30;99.90
6690;DHT22;3382;51.576;8.076;2023-04-21T07:52:22;13.40;99.90
6690;DHT22;3382;51.576;8.076;2023-04-21T07:54:47;13.50;99.90
6690;DHT22;3382;51.576;8.076;2023-04-21T07:57:13;13.50;99.90
6690;DHT22;3382;51.576;8.076;2023-04-21T07:59:39;13.60;99.90
6690;DHT22;3382;51.576;8.076;2023-04-21T08:02:05;13.70;99.90
6690;DHT22;3382;51.576;8.076;2023-04-21T08:04:31;13.70;99.90
6690;DHT22;3382;51.576;8.076;2023-04-21T08:06:56;13.80;99.90
6690;DHT22;3382;51.576;8.076;2023-04-21T08:09:22;13.80;99.90
6690;DHT22;3382;51.576;8.076;2023-04-21T08:11:48;13.70;99.90
6690;DHT22;3382;51.576;8.076;2023-04-21T08:14:14;13.80;99.90
6690;DHT22;3382;51.576;8.076;2023-04-21T08:16:39;13.90;99.90
6690;DHT22;3382;51.576;8.076;2023-04-21T08:19:07;13.90;99.90
6690;DHT22;3382;51.576;8.076;2023-04-21T08:21:33;14.00;99.90
6690;DHT22;3382;51.576;8.076;2023-04-21T08:23:59;14.00;99.90
6690;DHT22;3382;51.576;8.076;2023-04-21T08:26:25;14.00;99.90
6690;DHT22;3382;51.576;8.076;2023-04-21T08:28:51;14.00;99.90
6690;DHT22;3382;51.576;8.076;2023-04-21T08:31:18;14.00;99.90
6690;DHT22;3382;51.576;8.076;2023-04-21T08:33:44;14.00;99.90
6690;DHT22;3382;51.576;8.076;2023-04-21T08:36:10;14.10;99.90
6690;DHT22;3382;51.576;8.076;2023-04-21T08:38:37;14.10;99.90
6690;DHT22;3382;51.576;8.076;2023-04-21T08:41:03;14.10;99.90
6690;DHT22;3382;51.576;8.076;2023-04-21T08:43:29;14.20;99.90
6690;DHT22;3382;51.576;8.076;2023-04-21T08:45:55;14.20;99.90
6690;DHT22;3382;51.576;8.076;2023-04-21T08:48:22;14.20;99.90
6690;DHT22;3382;51.576;8.076;2023-04-21T08:50:50;14.30;99.90
6690;DHT22;3382;51.576;8.076;2023-04-21T08:53:16;14.30;99.90
6690;DHT22;3382;51.576;8.076;2023-04-21T08:55:42;14.40;99.90
6690;DHT22;3382;51.576;8.076;2023-04-21T08:58:08;14.40;99.90
6690;DHT22;3382;51.576;8.076;2023-04-21T09:00:35;14.50;99.90
6690;DHT22;3382;51.576;8.076;2023-04-21T09:03:01;14.50;99.90
6690;DHT22;3382;51.576;8.076;2023-04-21T09:05:31;14.60;99.90
6690;DHT22;3382;51.576;8.076;2023-04-21T09:08:14;14.70;99.90
6690;DHT22;3382;51.576;8.076;2023-04-21T09:13:09;14.90;99.90
6690;DHT22;3382;51.576;8.076;2023-04-21T09:15:41;15.00;99.90
6690;DHT22;3382;51.576;8.076;2023-04-21T09:18:27;15.10;99.90
6690;DHT22;3382;51.576;8.076;2023-04-21T09:21:15;15.20;99.90
6690;DHT22;3382;51.576;8.076;2023-04-21T09:26:08;15.30;99.90
6690;DHT22;3382;51.576;8.076;2023-04-21T09:28:34;15.30;99.90
6690;DHT22;3382;51.576;8.076;2023-04-21T09:30:59;15.40;99.90
6690;DHT22;3382;51.576;8.076;2023-04-21T09:33:25;15.40;99.90
6690;DHT22;3382;51.576;8.076;2023-04-21T09:35:51;15.50;99.90
6690;DHT22;3382;51.576;8.076;2023-04-21T09:38:21;15.50;99.90
6690;DHT22;3382;51.576;8.076;2023-04-21T09:40:56;15.60;99.90
6690;DHT22;3382;51.576;8.076;2023-04-21T09:43:22;15.60;99.90
6690;DHT22;3382;51.576;8.076;2023-04-21T09:45:48;15.70;99.90
6690;DHT22;3382;51.576;8.076;2023-04-21T09:48:16;15.60;99.90
6690;DHT22;3382;51.576;8.076;2023-04-21T09:50:42;15.70;99.90
6690;DHT22;3382;51.576;8.076;2023-04-21T09:53:14;15.70;99.90
6690;DHT22;3382;51.576;8.076;2023-04-21T09:55:40;15.80;99.90
6690;DHT22;3382;51.576;8.076;2023-04-21T09:58:06;16.00;99.90
6690;DHT22;3382;51.576;8.076;2023-04-21T10:00:34;16.10;99.90
6690;DHT22;3382;51.576;8.076;2023-04-21T10:03:04;16.10;99.90
6690;DHT22;3382;51.576;8.076;2023-04-21T10:05:34;16.10;99.90
6690;DHT22;3382;51.576;8.076;2023-04-21T10:08:00;16.20;99.90
6690;DHT22;3382;51.576;8.076;2023-04-21T10:10:28;16.30;99.90
6690;DHT22;3382;51.576;8.076;2023-04-21T10:12:56;16.50;99.90
6690;DHT22;3382;51.576;8.076;2023-04-21T10:15:39;16.60;99.90
6690;DHT22;3382;51.576;8.076;2023-04-21T10:18:21;16.70;99.90
6690;DHT22;3382;51.576;8.076;2023-04-21T10:20:54;16.80;99.90
6690;DHT22;3382;51.576;8.076;2023-04-21T10:23:43;16.90;99.90
6690;DHT22;3382;51.576;8.076;2023-04-21T10:26:13;17.10;99.90
6690;DHT22;3382;51.576;8.076;2023-04-21T10:28:59;17.10;99.90
6690;DHT22;3382;51.576;8.076;2023-04-21T10:36:33;17.20;99.90
6690;DHT22;3382;51.576;8.076;2023-04-21T10:39:02;17.10;99.90
6690;DHT22;3382;51.576;8.076;2023-04-21T10:41:34;17.10;99.90
6690;DHT22;3382;51.576;8.076;2023-04-21T10:46:35;17.30;99.90
6690;DHT22;3382;51.576;8.076;2023-04-21T10:49:27;17.30;99.90
6690;DHT22;3382;51.576;8.076;2023-04-21T10:54:35;17.30;99.90
6690;DHT22;3382;51.576;8.076;2023-04-21T10:57:06;17.30;99.90
6690;DHT22;3382;51.576;8.076;2023-04-21T10:59:33;17.30;99.90
6690;DHT22;3382;51.576;8.076;2023-04-21T11:02:06;17.30;99.90
6690;DHT22;3382;51.576;8.076;2023-04-21T11:04:33;17.30;99.90
6690;DHT22;3382;51.576;8.076;2023-04-21T11:07:11;17.40;99.90
6690;DHT22;3382;51.576;8.076;2023-04-21T11:09:38;17.40;99.90
6690;DHT22;3382;51.576;8.076;2023-04-21T11:12:07;17.30;99.90
6690;DHT22;3382;51.576;8.076;2023-04-21T11:14:35;17.30;99.90
6690;DHT22;3382;51.576;8.076;2023-04-21T11:17:02;17.40;99.90
6690;DHT22;3382;51.576;8.076;2023-04-21T11:19:27;17.40;99.90
6690;DHT22;3382;51.576;8.076;2023-04-21T11:21:53;17.50;99.90
6690;DHT22;3382;51.576;8.076;2023-04-21T11:24:22;17.70;99.90
6690;DHT22;3382;51.576;8.076;2023-04-21T11:26:48;17.80;99.90
6690;DHT22;3382;51.576;8.076;2023-04-21T11:29:13;17.80;99.90
6690;DHT22;3382;51.576;8.076;2023-04-21T11:31:41;17.80;99.90
6690;DHT22;3382;51.576;8.076;2023-04-21T11:34:07;17.90;99.90
6690;DHT22;3382;51.576;8.076;2023-04-21T11:36:37;18.00;99.90
6690;DHT22;3382;51.576;8.076;2023-04-21T11:39:07;18.20;99.90
6690;DHT22;3382;51.576;8.076;2023-04-21T11:41:52;18.30;99.90
6690;DHT22;3382;51.576;8.076;2023-04-21T11:44:36;18.30;99.90
6690;DHT22;3382;51.576;8.076;2023-04-21T11:47:19;18.40;99.90
6690;DHT22;3382;51.576;8.076;2023-04-21T11:50:00;18.50;99.90
6690;DHT22;3382;51.576;8.076;2023-04-21T11:52:31;18.50;99.90
6690;DHT22;3382;51.576;8.076;2023-04-21T11:55:12;18.40;99.90
6690;DHT22;3382;51.576;8.076;2023-04-21T11:57:43;18.40;99.90
6690;DHT22;3382;51.576;8.076;2023-04-21T12:00:10;18.50;99.90
6690;DHT22;3382;51.576;8.076;2023-04-21T12:02:37;18.50;99.90
6690;DHT22;3382;51.576;8.076;2023-04-21T12:07:39;18.60;99.90
6690;DHT22;3382;51.576;8.076;2023-04-21T12:10:13;18.60;99.90
6690;DHT22;3382;51.576;8.076;2023-04-21T12:12:41;18.60;99.90
6690;DHT22;3382;51.576;8.076;2023-04-21T12:15:11;18.60;99.90
6690;DHT22;3382;51.576;8.076;2023-04-21T12:17:44;18.70;99.90
6690;DHT22;3382;51.576;8.076;2023-04-21T12:20:10;18.80;99.90
6690;DHT22;3382;51.576;8.076;2023-04-21T12:22:36;19.00;99.90
6690;DHT22;3382;51.576;8.076;2023-04-21T12:25:03;19.10;99.90
6690;DHT22;3382;51.576;8.076;2023-04-21T12:27:28;19.20;99.90
6690;DHT22;3382;51.576;8.076;2023-04-21T12:29:54;19.30;99.90
6690;DHT22;3382;51.576;8.076;2023-04-21T12:32:20;19.50;99.90
6690;DHT22;3382;51.576;8.076;2023-04-21T12:34:46;19.70;99.90
6690;DHT22;3382;51.576;8.076;2023-04-21T12:37:11;19.70;99.90
6690;DHT22;3382;51.576;8.076;2023-04-21T12:39:37;19.70;99.90
6690;DHT22;3382;51.576;8.076;2023-04-21T12:42:03;19.80;99.90
6690;DHT22;3382;51.576;8.076;2023-04-21T12:44:28;19.80;99.90
6690;DHT22;3382;51.576;8.076;2023-04-21T12:46:55;19.90;99.90
6690;DHT22;3382;51.576;8.076;2023-04-21T12:49:21;20.10;99.90
6690;DHT22;3382;51.576;8.076;2023-04-21T12:51:47;20.20;99.90
6690;DHT22;3382;51.576;8.076;2023-04-21T12:54:13;20.40;99.90
6690;DHT22;3382;51.576;8.076;2023-04-21T12:56:40;20.50;99.90
6690;DHT22;3382;51.576;8.076;2023-04-21T12:59:06;20.70;99.90
6690;DHT22;3382;51.576;8.076;2023-04-21T13:01:34;20.80;99.90
6690;DHT22;3382;51.576;8.076;2023-04-21T13:03:59;20.90;99.90
6690;DHT22;3382;51.576;8.076;2023-04-21T13:06:25;20.90;99.90
6690;DHT22;3382;51.576;8.076;2023-04-21T13:08:52;20.90;99.90
6690;DHT22;3382;51.576;8.076;2023-04-21T13:11:18;20.70;99.90
6690;DHT22;3382;51.576;8.076;2023-04-21T13:13:43;20.70;99.90
6690;DHT22;3382;51.576;8.076;2023-04-21T13:16:09;20.70;99.90
6690;DHT22;3382;51.576;8.076;2023-04-21T13:18:35;20.70;99.90
6690;DHT22;3382;51.576;8.076;2023-04-21T13:21:01;20.80;99.90
6690;DHT22;3382;51.576;8.076;2023-04-21T13:23:27;21.00;99.90
6690;DHT22;3382;51.576;8.076;2023-04-21T13:25:53;21.00;99.90
6690;DHT22;3382;51.576;8.076;2023-04-21T13:28:19;20.80;99.90
6690;DHT22;3382;51.576;8.076;2023-04-21T13:30:45;20.70;99.90
6690;DHT22;3382;51.576;8.076;2023-04-21T13:33:10;20.50;99.90
6690;DHT22;3382;51.576;8.076;2023-04-21T13:35:37;20.30;99.90
6690;DHT22;3382;51.576;8.076;2023-04-21T13:38:03;20.30;99.90
6690;DHT22;3382;51.576;8.076;2023-04-21T13:40:28;20.20;99.90
6690;DHT22;3382;51.576;8.076;2023-04-21T13:42:54;20.20;99.90
6690;DHT22;3382;51.576;8.076;2023-04-21T13:45:20;20.00;99.90
6690;DHT22;3382;51.576;8.076;2023-04-21T13:47:45;20.00;99.90
6690;DHT22;3382;51.576;8.076;2023-04-21T13:50:11;19.90;99.90
6690;DHT22;3382;51.576;8.076;2023-04-21T13:52:37;19.80;99.90
6690;DHT22;3382;51.576;8.076;2023-04-21T13:55:02;19.80;99.90
6690;DHT22;3382;51.576;8.076;2023-04-21T13:57:31;19.70;99.90
6690;DHT22;3382;51.576;8.076;2023-04-21T13:59:57;19.60;99.90
6690;DHT22;3382;51.576;8.076;2023-04-21T14:02:22;19.50;99.90
6690;DHT22;3382;51.576;8.076;2023-04-21T14:04:50;19.40;99.90
6690;DHT22;3382;51.576;8.076;2023-04-21T14:07:16;19.30;99.90
6690;DHT22;3382;51.576;8.076;2023-04-21T14:09:46;19.20;99.90
6690;DHT22;3382;51.576;8.076;2023-04-21T14:12:12;19.20;99.90
6690;DHT22;3382;51.576;8.076;2023-04-21T14:14:37;19.30;99.90
6690;DHT22;3382;51.576;8.076;2023-04-21T14:17:03;19.30;99.90
6690;DHT22;3382;51.576;8.076;2023-04-21T14:19:29;19.30;99.90
6690;DHT22;3382;51.576;8.076;2023-04-21T14:21:56;19.30;99.90
6690;DHT22;3382;51.576;8.076;2023-04-21T14:24:22;19.40;99.90
6690;DHT22;3382;51.576;8.076;2023-04-21T14:26:47;19.30;99.90
6690;DHT22;3382;51.576;8.076;2023-04-21T14:29:13;19.30;99.90
6690;DHT22;3382;51.576;8.076;2023-04-21T14:31:39;19.30;99.90
6690;DHT22;3382;51.576;8.076;2023-04-21T14:34:04;19.30;99.90
6690;DHT22;3382;51.576;8.076;2023-04-21T14:36:30;19.30;99.90
6690;DHT22;3382;51.576;8.076;2023-04-21T14:38:55;19.30;99.90
6690;DHT22;3382;51.576;8.076;2023-04-21T14:41:21;19.20;99.90
6690;DHT22;3382;51.576;8.076;2023-04-21T14:43:46;19.30;99.90
6690;DHT22;3382;51.576;8.076;2023-04-21T14:46:13;19.50;99.90
6690;DHT22;3382;51.576;8.076;2023-04-21T14:48:38;19.50;99.90
6690;DHT22;3382;51.576;8.076;2023-04-21T14:51:06;19.60;99.90
6690;DHT22;3382;51.576;8.076;2023-04-21T14:53:33;19.70;99.90
6690;DHT22;3382;51.576;8.076;2023-04-21T14:55:59;19.70;99.90
6690;DHT22;3382;51.576;8.076;2023-04-21T14:58:25;19.80;99.90
6690;DHT22;3382;51.576;8.076;2023-04-21T15:00:50;19.80;99.90
6690;DHT22;3382;51.576;8.076;2023-04-21T15:03:16;19.80;99.90
6690;DHT22;3382;51.576;8.076;2023-04-21T15:05:41;19.80;99.90
6690;DHT22;3382;51.576;8.076;2023-04-21T15:08:07;19.80;99.90
6690;DHT22;3382;51.576;8.076;2023-04-21T15:10:34;19.80;99.90
6690;DHT22;3382;51.576;8.076;2023-04-21T15:13:00;19.80;99.90
6690;DHT22;3382;51.576;8.076;2023-04-21T15:15:26;19.80;99.90
6690;DHT22;3382;51.576;8.076;2023-04-21T15:17:51;19.80;99.90
6690;DHT22;3382;51.576;8.076;2023-04-21T15:20:17;19.70;99.90
6690;DHT22;3382;51.576;8.076;2023-04-21T15:22:43;19.60;99.90
6690;DHT22;3382;51.576;8.076;2023-04-21T15:25:08;19.60;99.90
6690;DHT22;3382;51.576;8.076;2023-04-21T15:27:34;19.60;99.90
6690;DHT22;3382;51.576;8.076;2023-04-21T15:30:01;19.60;99.90
6690;DHT22;3382;51.576;8.076;2023-04-21T15:32:28;19.60;99.90
6690;DHT22;3382;51.576;8.076;2023-04-21T15:34:54;19.60;99.90
6690;DHT22;3382;51.576;8.076;2023-04-21T15:37:19;19.60;99.90
6690;DHT22;3382;51.576;8.076;2023-04-21T15:39:46;19.60;99.90
6690;DHT22;3382;51.576;8.076;2023-04-21T15:42:12;19.80;99.90
6690;DHT22;3382;51.576;8.076;2023-04-21T15:44:38;19.80;99.90
6690;DHT22;3382;51.576;8.076;2023-04-21T15:47:04;19.60;99.90
6690;DHT22;3382;51.576;8.076;2023-04-21T15:49:30;19.50;99.90
6690;DHT22;3382;51.576;8.076;2023-04-21T15:51:56;19.50;99.90
6690;DHT22;3382;51.576;8.076;2023-04-21T15:54:22;19.50;99.90
6690;DHT22;3382;51.576;8.076;2023-04-21T15:56:48;19.60;99.90
6690;DHT22;3382;51.576;8.076;2023-04-21T15:59:14;19.60;99.90
6690;DHT22;3382;51.576;8.076;2023-04-21T16:01:39;19.50;99.90
6690;DHT22;3382;51.576;8.076;2023-04-21T16:04:05;19.50;99.90
6690;DHT22;3382;51.576;8.076;2023-04-21T16:06:30;19.60;99.90
6690;DHT22;3382;51.576;8.076;2023-04-21T16:08:57;19.70;99.90
6690;DHT22;3382;51.576;8.076;2023-04-21T16:11:23;19.70;99.90
6690;DHT22;3382;51.576;8.076;2023-04-21T16:13:49;19.70;99.90
6690;DHT22;3382;51.576;8.076;2023-04-21T16:16:16;19.80;99.90
6690;DHT22;3382;51.576;8.076;2023-04-21T16:18:44;19.90;99.90